Time;durP1;ratioP1;P1;durP2;ratioP2;P2;SDS_P1;SDS_P2;PMS_P1;PMS_P2;Temp;Humidity;BMP_temperature;BMP_pressure;BME280_temperature;BME280_humidity;BME280_pressure;Samples;Min_cycle;Max_cycle;Signal;HPM_P1;HPM_P2
2021/06/25 00:01:38;;;;;;;5.13;1.90;;;;;;;;;;5094892;28;20385;-72
2021/06/25 00:04:05;;;;;;;6.15;2.40;;;;;;;;;;5094407;28;20043;-71
2021/06/25 00:06:31;;;;;;;5.10;2.20;;;;;;;;;;5094616;28;20103;-71
2021/06/25 00:08:57;;;;;;;7.03;2.42;;;;;;;;;;5094081;28;20063;-72
2021/06/25 00:11:23;;;;;;;8.45;1.98;;;;;;;;;;5094356;28;20041;-71
2021/06/25 00:13:49;;;;;;;3.53;1.95;;;;;;;;;;5094400;28;20493;-71
2021/06/25 00:16:15;;;;;;;4.40;2.53;;;;;;;;;;5094845;28;20031;-71
2021/06/25 00:18:41;;;;;;;4.07;2.85;;;;;;;;;;5094433;28;20027;-71
2021/06/25 00:21:07;;;;;;;2.90;2.00;;;;;;;;;;5093920;28;20488;-72
2021/06/25 00:23:33;;;;;;;5.38;2.78;;;;;;;;;;5094061;28;20372;-71
2021/06/25 00:25:59;;;;;;;6.72;2.60;;;;;;;;;;5094616;28;20016;-71
2021/06/25 00:28:26;;;;;;;2.65;2.28;;;;;;;;;;5094291;28;20059;-71
2021/06/25 00:30:52;;;;;;;3.80;2.42;;;;;;;;;;5094147;28;20081;-71
2021/06/25 00:33:18;;;;;;;3.38;2.70;;;;;;;;;;5094261;28;20475;-72
2021/06/25 00:35:44;;;;;;;5.88;2.28;;;;;;;;;;5093224;28;20028;-71
2021/06/25 00:38:10;;;;;;;5.57;3.22;;;;;;;;;;5093878;28;20027;-71
2021/06/25 00:40:36;;;;;;;3.75;2.67;;;;;;;;;;5094067;28;20111;-71
2021/06/25 00:43:02;;;;;;;7.72;3.45;;;;;;;;;;5093773;28;20020;-71
2021/06/25 00:45:29;;;;;;;4.65;2.85;;;;;;;;;;5094370;28;20031;-71
2021/06/25 00:47:55;;;;;;;6.63;3.28;;;;;;;;;;5094229;28;20020;-71
2021/06/25 00:50:22;;;;;;;5.70;3.17;;;;;;;;;;5094032;28;20410;-71
2021/06/25 00:52:56;;;;;;;5.95;3.30;;;;;;;;;;5093385;28;20430;-71
2021/06/25 00:55:22;;;;;;;8.88;3.22;;;;;;;;;;5094498;28;20351;-71
2021/06/25 00:57:48;;;;;;;4.30;2.80;;;;;;;;;;5093784;28;20386;-71
2021/06/25 01:00:15;;;;;;;7.20;4.05;;;;;;;;;;5094062;28;20031;-71
2021/06/25 01:02:41;;;;;;;6.05;3.30;;;;;;;;;;5093780;28;20050;-71
2021/06/25 01:05:09;;;;;;;5.40;3.63;;;;;;;;;;5093050;28;20021;-71
2021/06/25 01:07:36;;;;;;;5.43;3.50;;;;;;;;;;5093405;28;20035;-71
2021/06/25 01:10:02;;;;;;;5.30;3.38;;;;;;;;;;5094134;28;20056;-71
2021/06/25 01:12:28;;;;;;;7.00;3.55;;;;;;;;;;5093940;28;20036;-71
2021/06/25 01:14:54;;;;;;;11.07;3.10;;;;;;;;;;5093356;28;20028;-72
2021/06/25 01:17:36;;;;;;;4.85;3.30;;;;;;;;;;5093821;28;20103;-71
2021/06/25 01:20:05;;;;;;;6.97;4.50;;;;;;;;;;5093190;28;20024;-71
2021/06/25 01:22:35;;;;;;;8.25;3.70;;;;;;;;;;5093351;28;20024;-71
2021/06/25 01:25:05;;;;;;;5.03;3.45;;;;;;;;;;5093244;28;20021;-71
2021/06/25 01:27:31;;;;;;;5.28;3.47;;;;;;;;;;5093537;28;20527;-71
2021/06/25 01:29:58;;;;;;;4.05;3.50;;;;;;;;;;5093609;28;20462;-71
2021/06/25 01:32:24;;;;;;;4.20;3.80;;;;;;;;;;5092891;28;20050;-71
2021/06/25 01:34:50;;;;;;;6.93;3.50;;;;;;;;;;5093327;28;20024;-71
2021/06/25 01:37:16;;;;;;;7.03;3.40;;;;;;;;;;5093134;28;20047;-71
2021/06/25 01:39:42;;;;;;;3.47;2.88;;;;;;;;;;5093020;28;20024;-71
2021/06/25 01:42:08;;;;;;;5.00;3.15;;;;;;;;;;5093584;28;20028;-71
2021/06/25 01:44:35;;;;;;;13.35;3.63;;;;;;;;;;5093316;28;20024;-71
2021/06/25 01:47:02;;;;;;;3.53;3.13;;;;;;;;;;5095809;28;20027;-71
2021/06/25 01:49:28;;;;;;;4.72;3.58;;;;;;;;;;5097775;28;20048;-71
2021/06/25 01:51:54;;;;;;;8.75;4.18;;;;;;;;;;5097578;28;20040;-71
2021/06/25 01:54:20;;;;;;;5.40;4.20;;;;;;;;;;5096843;28;20021;-71
2021/06/25 01:56:46;;;;;;;7.85;3.60;;;;;;;;;;5097141;28;20050;-71
2021/06/25 01:59:12;;;;;;;3.25;2.95;;;;;;;;;;5096821;28;20886;-71
2021/06/25 02:01:38;;;;;;;6.10;3.30;;;;;;;;;;5096656;28;20426;-71
2021/06/25 02:04:04;;;;;;;8.65;3.90;;;;;;;;;;5096950;28;20416;-71
2021/06/25 02:06:31;;;;;;;5.15;3.97;;;;;;;;;;5097374;28;20024;-71
2021/06/25 02:08:57;;;;;;;8.18;4.22;;;;;;;;;;5096833;28;20027;-71
2021/06/25 02:11:23;;;;;;;15.25;4.57;;;;;;;;;;5097135;28;20028;-71
2021/06/25 02:13:49;;;;;;;6.35;4.05;;;;;;;;;;5097052;28;20024;-71
2021/06/25 02:16:15;;;;;;;9.15;3.88;;;;;;;;;;5096737;28;20487;-72
2021/06/25 02:18:41;;;;;;;4.78;4.22;;;;;;;;;;5096921;28;20028;-72
2021/06/25 02:21:07;;;;;;;6.60;3.97;;;;;;;;;;5096419;28;20032;-71
2021/06/25 02:23:33;;;;;;;6.03;3.92;;;;;;;;;;5096221;28;20021;-71
2021/06/25 02:25:59;;;;;;;7.90;3.40;;;;;;;;;;5096405;28;20107;-72
2021/06/25 02:28:25;;;;;;;4.70;3.33;;;;;;;;;;5096277;28;20073;-72
2021/06/25 02:30:51;;;;;;;8.18;3.30;;;;;;;;;;5096419;28;20024;-72
2021/06/25 02:33:17;;;;;;;5.45;3.92;;;;;;;;;;5096360;28;20043;-71
2021/06/25 02:35:44;;;;;;;11.45;3.60;;;;;;;;;;5096090;28;20431;-71
2021/06/25 02:38:10;;;;;;;4.68;3.65;;;;;;;;;;5096716;28;20377;-71
2021/06/25 02:40:36;;;;;;;5.22;3.20;;;;;;;;;;5096429;28;20050;-71
2021/06/25 02:43:02;;;;;;;7.78;4.07;;;;;;;;;;5095893;28;20024;-71
2021/06/25 02:45:28;;;;;;;6.10;3.47;;;;;;;;;;5095892;28;20465;-71
2021/06/25 02:47:54;;;;;;;5.50;4.35;;;;;;;;;;5096200;28;20121;-71
2021/06/25 02:50:20;;;;;;;6.22;4.15;;;;;;;;;;5095990;28;20059;-71
2021/06/25 02:52:46;;;;;;;5.45;4.07;;;;;;;;;;5096256;28;20068;-71
2021/06/25 02:55:12;;;;;;;6.88;4.70;;;;;;;;;;5095747;28;20031;-71
2021/06/25 02:57:38;;;;;;;11.85;4.35;;;;;;;;;;5094933;28;20021;-71
2021/06/25 03:00:05;;;;;;;8.30;4.10;;;;;;;;;;5095929;28;20020;-72
2021/06/25 03:02:31;;;;;;;7.88;4.07;;;;;;;;;;5095903;28;20031;-71
2021/06/25 03:04:57;;;;;;;13.57;5.45;;;;;;;;;;5095761;28;20081;-71
2021/06/25 03:07:23;;;;;;;8.55;3.55;;;;;;;;;;5096310;28;20036;-71
2021/06/25 03:09:49;;;;;;;8.68;4.32;;;;;;;;;;5096095;28;20027;-71
2021/06/25 03:12:15;;;;;;;8.70;5.40;;;;;;;;;;5095657;28;20036;-71
2021/06/25 03:14:41;;;;;;;6.47;4.55;;;;;;;;;;5095287;28;20082;-72
2021/06/25 03:17:09;;;;;;;10.63;4.85;;;;;;;;;;5095085;28;20496;-71
2021/06/25 03:19:35;;;;;;;9.27;4.70;;;;;;;;;;5096271;28;20024;-71
2021/06/25 03:22:01;;;;;;;44.22;13.65;;;;;;;;;;5095471;28;20036;-71
2021/06/25 03:24:27;;;;;;;10.93;7.15;;;;;;;;;;5095407;28;20480;-71
2021/06/25 03:26:53;;;;;;;19.15;7.85;;;;;;;;;;5094843;28;20501;-72
2021/06/25 03:29:19;;;;;;;14.60;7.10;;;;;;;;;;5095159;28;20058;-72
2021/06/25 03:31:45;;;;;;;12.85;6.65;;;;;;;;;;5094508;28;20036;-71
2021/06/25 03:34:11;;;;;;;11.30;6.25;;;;;;;;;;5095709;28;20028;-71
2021/06/25 03:36:37;;;;;;;13.10;7.25;;;;;;;;;;5095418;28;20020;-71
2021/06/25 03:39:04;;;;;;;11.55;6.50;;;;;;;;;;5093975;28;20115;-72
2021/06/25 03:41:30;;;;;;;15.63;7.60;;;;;;;;;;5095184;28;20408;-71
2021/06/25 03:43:56;;;;;;;13.10;7.30;;;;;;;;;;5094976;28;20032;-71
2021/06/25 03:46:23;;;;;;;15.80;7.78;;;;;;;;;;5095010;28;20032;-71
2021/06/25 03:48:49;;;;;;;11.52;6.43;;;;;;;;;;5094784;28;20501;-71
2021/06/25 03:51:15;;;;;;;11.77;6.80;;;;;;;;;;5094916;28;20048;-71
2021/06/25 03:53:41;;;;;;;13.10;6.85;;;;;;;;;;5094986;28;20052;-71
2021/06/25 03:56:11;;;;;;;16.25;7.20;;;;;;;;;;5094723;28;20469;-71
2021/06/25 03:58:38;;;;;;;19.05;7.60;;;;;;;;;;5094879;28;20062;-71
2021/06/25 04:01:04;;;;;;;9.70;7.22;;;;;;;;;;5094488;28;20112;-71
2021/06/25 04:03:30;;;;;;;10.55;5.95;;;;;;;;;;5094586;28;20024;-71
2021/06/25 04:05:56;;;;;;;15.73;6.32;;;;;;;;;;5094667;28;20085;-71
2021/06/25 04:08:24;;;;;;;9.48;5.78;;;;;;;;;;5094656;28;20047;-71
2021/06/25 04:10:51;;;;;;;10.38;6.30;;;;;;;;;;5094404;28;20052;-71
2021/06/25 04:13:17;;;;;;;8.00;6.25;;;;;;;;;;5093969;28;20042;-72
2021/06/25 04:15:43;;;;;;;7.38;5.35;;;;;;;;;;5094548;28;20063;-71
2021/06/25 04:18:09;;;;;;;8.60;5.80;;;;;;;;;;5095024;28;20031;-71
2021/06/25 04:20:35;;;;;;;11.93;6.18;;;;;;;;;;5094542;28;20020;-71
2021/06/25 04:23:01;;;;;;;7.93;5.43;;;;;;;;;;5094036;28;20034;-72
2021/06/25 04:25:27;;;;;;;9.98;5.82;;;;;;;;;;5094313;28;20077;-71
2021/06/25 04:27:55;;;;;;;8.10;5.63;;;;;;;;;;5094721;28;20038;-71
2021/06/25 04:30:21;;;;;;;13.15;7.50;;;;;;;;;;5094046;28;20024;-71
2021/06/25 04:32:47;;;;;;;6.60;5.93;;;;;;;;;;5094328;28;20044;-71
2021/06/25 04:35:13;;;;;;;8.60;7.30;;;;;;;;;;5093964;28;20064;-71
2021/06/25 04:37:39;;;;;;;8.40;6.10;;;;;;;;;;5094406;28;20024;-71
2021/06/25 04:40:06;;;;;;;9.52;5.80;;;;;;;;;;5094193;28;20457;-71
2021/06/25 04:42:32;;;;;;;7.88;5.13;;;;;;;;;;5092722;28;20035;-74
2021/06/25 04:44:58;;;;;;;15.98;5.80;;;;;;;;;;5093259;28;20024;-73
2021/06/25 04:47:25;;;;;;;6.63;4.85;;;;;;;;;;5094231;28;20487;-72
2021/06/25 04:49:51;;;;;;;6.75;5.43;;;;;;;;;;5094230;28;20059;-73
2021/06/25 04:52:17;;;;;;;10.73;5.43;;;;;;;;;;5093307;28;20047;-72
2021/06/25 04:54:43;;;;;;;8.63;5.60;;;;;;;;;;5093770;28;20032;-71
2021/06/25 04:57:10;;;;;;;17.85;6.05;;;;;;;;;;5091641;28;20448;-72
2021/06/25 04:59:36;;;;;;;17.10;6.10;;;;;;;;;;5092648;28;20024;-72
2021/06/25 05:02:02;;;;;;;10.75;5.97;;;;;;;;;;5092122;28;20024;-72
2021/06/25 05:04:28;;;;;;;7.25;5.50;;;;;;;;;;5092376;28;20022;-71
2021/06/25 05:06:54;;;;;;;8.70;5.68;;;;;;;;;;5092844;28;20028;-73
2021/06/25 05:09:20;;;;;;;9.65;6.25;;;;;;;;;;5092800;28;20070;-69
2021/06/25 05:11:46;;;;;;;10.88;5.30;;;;;;;;;;5092224;28;20123;-73
2021/06/25 05:14:13;;;;;;;10.05;5.55;;;;;;;;;;5092608;28;20034;-69
2021/06/25 05:16:39;;;;;;;7.57;6.57;;;;;;;;;;5093321;28;20021;-69
2021/06/25 05:19:05;;;;;;;11.70;8.32;;;;;;;;;;5093290;28;20386;-70
2021/06/25 05:21:31;;;;;;;12.73;8.00;;;;;;;;;;5097863;28;20024;-71
2021/06/25 05:23:57;;;;;;;18.63;9.27;;;;;;;;;;5100177;28;20024;-71
2021/06/25 05:26:23;;;;;;;11.25;9.63;;;;;;;;;;5099172;28;20501;-71
2021/06/25 05:28:49;;;;;;;11.25;9.93;;;;;;;;;;5099619;28;20385;-71
2021/06/25 05:31:15;;;;;;;13.13;9.88;;;;;;;;;;5099877;28;20012;-71
2021/06/25 05:33:41;;;;;;;11.77;10.38;;;;;;;;;;5099868;28;20022;-71
2021/06/25 05:36:07;;;;;;;11.32;10.27;;;;;;;;;;5099610;28;20400;-72
2021/06/25 05:38:33;;;;;;;17.40;10.60;;;;;;;;;;5099956;28;20024;-71
2021/06/25 05:40:59;;;;;;;19.20;10.57;;;;;;;;;;5099320;28;20020;-71
2021/06/25 05:43:25;;;;;;;14.00;11.23;;;;;;;;;;5099269;28;20024;-72
2021/06/25 05:45:51;;;;;;;17.77;11.68;;;;;;;;;;5099878;28;20019;-70
2021/06/25 05:48:17;;;;;;;17.83;10.73;;;;;;;;;;5100295;28;20499;-70
2021/06/25 05:50:43;;;;;;;13.05;10.68;;;;;;;;;;5099757;28;20079;-71
2021/06/25 05:53:09;;;;;;;14.13;10.48;;;;;;;;;;5099459;28;20075;-70
2021/06/25 05:55:36;;;;;;;16.15;10.90;;;;;;;;;;5099605;28;20028;-71
2021/06/25 05:58:02;;;;;;;17.55;12.55;;;;;;;;;;5099589;28;20361;-71
2021/06/25 06:00:28;;;;;;;15.45;11.27;;;;;;;;;;5099705;28;20024;-71
2021/06/25 06:02:54;;;;;;;14.75;11.35;;;;;;;;;;5099466;28;20088;-72
2021/06/25 06:05:20;;;;;;;14.63;12.93;;;;;;;;;;5099450;28;20020;-71
2021/06/25 06:07:46;;;;;;;17.55;12.93;;;;;;;;;;5100192;28;20380;-70
2021/06/25 06:10:13;;;;;;;15.52;10.90;;;;;;;;;;5099669;28;20388;-71
2021/06/25 06:12:39;;;;;;;16.55;10.82;;;;;;;;;;5099264;28;20036;-71
2021/06/25 06:15:05;;;;;;;15.50;10.52;;;;;;;;;;5099383;28;20024;-71
2021/06/25 06:17:31;;;;;;;11.10;9.98;;;;;;;;;;5099516;28;20054;-71
2021/06/25 06:19:57;;;;;;;14.18;10.75;;;;;;;;;;5099142;28;20020;-71
2021/06/25 06:33:34;;;;;;;12.85;10.50;;;;;;;;;;5080841;28;20109;-71
2021/06/25 06:36:04;;;;;;;21.02;12.60;;;;;;;;;;5096919;28;20026;-71
2021/06/25 06:38:30;;;;;;;12.40;10.98;;;;;;;;;;5095932;28;20454;-71
2021/06/25 06:40:56;;;;;;;12.93;11.13;;;;;;;;;;5095543;28;20458;-71
2021/06/25 06:43:23;;;;;;;13.75;12.35;;;;;;;;;;5095447;28;20020;-71
2021/06/25 06:45:49;;;;;;;14.75;10.52;;;;;;;;;;5095733;28;20028;-72
2021/06/25 06:48:15;;;;;;;13.60;11.57;;;;;;;;;;5095227;28;20381;-71
2021/06/25 06:50:41;;;;;;;15.10;11.30;;;;;;;;;;5095515;28;20488;-71
2021/06/25 06:53:07;;;;;;;14.32;11.80;;;;;;;;;;5095128;28;20032;-72
2021/06/25 06:55:33;;;;;;;16.73;11.25;;;;;;;;;;5096254;28;20056;-71
2021/06/25 06:57:59;;;;;;;13.32;12.05;;;;;;;;;;5096246;28;20466;-71
2021/06/25 07:00:25;;;;;;;14.50;12.80;;;;;;;;;;5095533;28;20028;-71
2021/06/25 07:02:53;;;;;;;14.85;10.95;;;;;;;;;;5095049;28;20038;-71
2021/06/25 07:05:19;;;;;;;13.85;12.55;;;;;;;;;;5095459;28;20029;-71
2021/06/25 07:07:45;;;;;;;16.23;11.07;;;;;;;;;;5094993;28;20378;-71
2021/06/25 07:10:11;;;;;;;14.52;10.75;;;;;;;;;;5095815;28;20426;-70
2021/06/25 07:12:39;;;;;;;11.00;9.85;;;;;;;;;;5095237;28;20095;-70
2021/06/25 07:15:06;;;;;;;15.52;10.85;;;;;;;;;;5095179;28;20016;-73
2021/06/25 07:17:32;;;;;;;18.40;10.68;;;;;;;;;;5095460;28;20032;-72
2021/06/25 07:19:58;;;;;;;9.73;8.73;;;;;;;;;;5094980;28;20024;-71
2021/06/25 07:22:25;;;;;;;11.68;9.75;;;;;;;;;;5094755;28;20028;-70
2021/06/25 07:24:51;;;;;;;14.05;10.68;;;;;;;;;;5095403;28;20055;-70
2021/06/25 07:27:18;;;;;;;15.00;10.40;;;;;;;;;;5094728;28;20449;-71
2021/06/25 07:29:44;;;;;;;17.25;10.85;;;;;;;;;;5094990;28;20114;-71
2021/06/25 07:32:10;;;;;;;13.13;9.88;;;;;;;;;;5094715;28;20043;-71
2021/06/25 07:34:36;;;;;;;22.83;10.27;;;;;;;;;;5094751;28;20487;-71
2021/06/25 07:37:02;;;;;;;16.20;9.88;;;;;;;;;;5094630;28;20368;-71
2021/06/25 07:39:28;;;;;;;18.02;9.40;;;;;;;;;;5094919;28;20024;-71
2021/06/25 07:41:54;;;;;;;15.13;8.25;;;;;;;;;;5094959;28;20128;-71
2021/06/25 07:44:20;;;;;;;12.00;8.85;;;;;;;;;;5093726;28;20028;-71
2021/06/25 07:46:46;;;;;;;12.75;9.75;;;;;;;;;;5094217;28;20508;-71
2021/06/25 07:49:13;;;;;;;11.30;6.68;;;;;;;;;;5093652;28;20353;-71
2021/06/25 07:51:39;;;;;;;11.45;8.88;;;;;;;;;;5094709;28;20032;-71
2021/06/25 07:54:05;;;;;;;14.88;10.15;;;;;;;;;;5094787;28;20047;-70
2021/06/25 07:56:31;;;;;;;11.73;9.93;;;;;;;;;;5094705;28;20069;-70
2021/06/25 07:58:57;;;;;;;15.32;9.48;;;;;;;;;;5094590;28;20106;-70
2021/06/25 08:01:25;;;;;;;9.90;8.82;;;;;;;;;;5093846;28;20485;-70
2021/06/25 08:03:51;;;;;;;11.07;9.10;;;;;;;;;;5094250;28;20377;-70
2021/06/25 08:06:17;;;;;;;10.23;8.77;;;;;;;;;;5094365;28;20571;-71
2021/06/25 08:08:43;;;;;;;12.43;10.48;;;;;;;;;;5094007;28;20127;-71
2021/06/25 08:11:09;;;;;;;10.52;9.52;;;;;;;;;;5093860;28;20016;-71
2021/06/25 08:13:35;;;;;;;12.90;9.40;;;;;;;;;;5094099;28;20085;-72
2021/06/25 08:16:01;;;;;;;12.70;9.02;;;;;;;;;;5093788;28;20028;-71
2021/06/25 08:18:27;;;;;;;12.43;11.27;;;;;;;;;;5094339;28;20031;-71
2021/06/25 08:20:53;;;;;;;14.73;11.70;;;;;;;;;;5094049;28;20047;-75
2021/06/25 08:23:20;;;;;;;23.75;13.05;;;;;;;;;;5094068;28;20047;-71
2021/06/25 08:25:46;;;;;;;19.52;14.93;;;;;;;;;;5094319;28;20020;-70
2021/06/25 08:28:12;;;;;;;20.77;18.15;;;;;;;;;;5093894;28;20025;-71
2021/06/25 08:30:38;;;;;;;26.30;20.48;;;;;;;;;;5093352;28;20370;-71
2021/06/25 08:33:04;;;;;;;25.20;22.15;;;;;;;;;;5093705;28;20359;-71
2021/06/25 08:35:30;;;;;;;33.63;23.67;;;;;;;;;;5094229;28;20024;-71
2021/06/25 08:37:56;;;;;;;32.03;25.88;;;;;;;;;;5093839;28;20028;-70
2021/06/25 08:40:23;;;;;;;34.42;29.65;;;;;;;;;;5093848;28;20350;-70
2021/06/25 08:42:49;;;;;;;33.13;29.73;;;;;;;;;;5093585;28;20031;-71
2021/06/25 08:45:15;;;;;;;33.40;28.98;;;;;;;;;;5093024;28;20027;-71
2021/06/25 08:47:43;;;;;;;31.02;27.67;;;;;;;;;;5094015;28;20032;-70
2021/06/25 08:50:10;;;;;;;32.40;26.08;;;;;;;;;;5093534;28;20087;-70
2021/06/25 08:52:36;;;;;;;34.55;28.98;;;;;;;;;;5093372;28;20032;-71
2021/06/25 08:55:03;;;;;;;29.13;24.95;;;;;;;;;;5092487;28;20532;-71
2021/06/25 08:57:32;;;;;;;25.95;23.27;;;;;;;;;;5093403;28;20020;-72
2021/06/25 08:59:58;;;;;;;36.92;28.23;;;;;;;;;;5092622;28;20429;-71
2021/06/25 09:02:24;;;;;;;34.70;26.80;;;;;;;;;;5093435;28;20028;-72
2021/06/25 09:04:50;;;;;;;23.90;20.77;;;;;;;;;;5093620;28;20028;-72
2021/06/25 09:07:16;;;;;;;26.70;22.25;;;;;;;;;;5093204;28;20466;-75
2021/06/25 09:09:43;;;;;;;40.90;24.10;;;;;;;;;;5092805;28;20027;-72
2021/06/25 09:12:11;;;;;;;27.48;23.00;;;;;;;;;;5093306;28;20406;-72
2021/06/25 09:14:57;;;;;;;23.95;21.42;;;;;;;;;;5092771;28;20024;-72
2021/06/25 09:17:23;;;;;;;25.65;21.48;;;;;;;;;;5078497;28;20028;-73
2021/06/25 09:19:49;;;;;;;24.65;20.77;;;;;;;;;;5093656;28;20111;-73
2021/06/25 09:22:15;;;;;;;25.52;22.00;;;;;;;;;;5093113;28;20027;-73
2021/06/25 09:24:41;;;;;;;26.10;22.33;;;;;;;;;;5092879;28;20412;-73
2021/06/25 09:27:08;;;;;;;22.90;20.13;;;;;;;;;;5092717;28;20031;-72
2021/06/25 09:29:35;;;;;;;24.73;20.27;;;;;;;;;;5093519;28;20036;-72
2021/06/25 09:32:06;;;;;;;26.08;17.63;;;;;;;;;;5093116;28;20531;-72
2021/06/25 09:34:42;;;;;;;22.25;18.90;;;;;;;;;;5093178;28;20031;-72
2021/06/25 09:37:10;;;;;;;18.50;16.52;;;;;;;;;;5092904;28;20024;-72
2021/06/25 09:39:41;;;;;;;18.67;16.63;;;;;;;;;;5092457;28;20028;-72
2021/06/25 09:42:09;;;;;;;18.30;16.35;;;;;;;;;;5092942;28;20031;-72
2021/06/25 09:44:35;;;;;;;19.05;16.45;;;;;;;;;;5093371;28;20060;-72
2021/06/25 09:47:01;;;;;;;23.85;14.50;;;;;;;;;;5092689;28;20024;-74
2021/06/25 09:49:28;;;;;;;17.00;14.63;;;;;;;;;;5092895;28;20052;-73
2021/06/25 09:51:56;;;;;;;16.42;14.90;;;;;;;;;;5093071;28;20090;-72
2021/06/25 09:54:22;;;;;;;17.23;15.43;;;;;;;;;;5092327;28;20373;-72
2021/06/25 10:02:22;;;;;;;13.93;12.57;;;;;;;;;;5078239;28;20061;-73
2021/06/25 10:04:50;;;;;;;14.43;12.65;;;;;;;;;;5092777;28;20560;-73
2021/06/25 10:07:17;;;;;;;16.67;11.85;;;;;;;;;;5094037;28;20024;-73
2021/06/25 10:09:43;;;;;;;14.93;13.63;;;;;;;;;;5096657;28;20032;-72
2021/06/25 10:12:10;;;;;;;13.77;12.43;;;;;;;;;;5095922;28;20028;-73
2021/06/25 10:14:36;;;;;;;16.33;11.20;;;;;;;;;;5096351;28;20024;-74
2021/06/25 10:17:05;;;;;;;27.23;11.45;;;;;;;;;;5095718;28;20024;-73
2021/06/25 10:19:31;;;;;;;12.57;11.23;;;;;;;;;;5096239;28;20419;-71
2021/06/25 10:21:57;;;;;;;16.38;10.15;;;;;;;;;;5097144;28;20024;-70
2021/06/25 10:24:23;;;;;;;10.20;9.10;;;;;;;;;;5096150;28;20028;-70
2021/06/25 10:26:49;;;;;;;12.30;8.70;;;;;;;;;;5096574;28;20574;-71
2021/06/25 10:29:15;;;;;;;9.63;8.73;;;;;;;;;;5096091;28;20027;-71
2021/06/25 10:31:41;;;;;;;10.80;8.85;;;;;;;;;;5095838;28;20016;-72
2021/06/25 10:34:08;;;;;;;26.73;9.20;;;;;;;;;;5095983;28;20031;-71
2021/06/25 10:36:36;;;;;;;7.63;7.03;;;;;;;;;;5094633;28;20031;-72
2021/06/25 10:39:06;;;;;;;8.05;7.30;;;;;;;;;;5094485;28;20020;-71
2021/06/25 10:41:52;;;;;;;7.80;7.10;;;;;;;;;;5095739;28;20446;-73
2021/06/25 10:44:40;;;;;;;7.45;6.53;;;;;;;;;;5081730;28;20032;-71
2021/06/25 10:47:12;;;;;;;13.52;8.95;;;;;;;;;;5081115;28;20028;-71
2021/06/25 10:49:58;;;;;;;12.57;9.35;;;;;;;;;;5096381;28;20044;-71
2021/06/25 10:52:24;;;;;;;16.33;7.32;;;;;;;;;;5080468;28;20029;-72
2021/06/25 10:55:10;;;;;;;9.43;7.47;;;;;;;;;;5095789;28;20594;-71
2021/06/25 10:57:37;;;;;;;14.75;8.38;;;;;;;;;;5080736;28;20114;-75
2021/06/25 11:00:05;;;;;;;9.27;7.50;;;;;;;;;;5096466;28;20024;-70
2021/06/25 11:02:46;;;;;;;8.35;7.53;;;;;;;;;;5096001;28;20408;-71
2021/06/25 11:05:31;;;;;;;10.88;7.55;;;;;;;;;;5095571;28;20031;-72
2021/06/25 11:08:00;;;;;;;7.80;7.07;;;;;;;;;;5095836;28;20370;-71
2021/06/25 11:10:31;;;;;;;20.17;7.40;;;;;;;;;;5094871;28;20054;-71
2021/06/25 11:13:17;;;;;;;8.63;7.82;;;;;;;;;;5095258;28;20036;-71
2021/06/25 11:15:44;;;;;;;15.82;8.45;;;;;;;;;;5080384;28;20050;-72
2021/06/25 11:18:19;;;;;;;12.75;8.18;;;;;;;;;;5094413;28;20059;-71
2021/06/25 11:21:05;;;;;;;8.63;7.70;;;;;;;;;;5095338;28;20063;-71
2021/06/25 11:23:43;;;;;;;7.63;6.90;;;;;;;;;;5080383;28;20028;-71
2021/06/25 11:26:25;;;;;;;8.18;7.15;;;;;;;;;;5095385;28;20369;-71
2021/06/25 11:28:51;;;;;;;8.77;7.88;;;;;;;;;;5095394;28;20107;-71
2021/06/25 11:31:20;;;;;;;10.23;8.27;;;;;;;;;;5094717;28;20031;-71
2021/06/25 11:33:50;;;;;;;9.10;7.47;;;;;;;;;;5095422;28;20032;-71
2021/06/25 11:36:20;;;;;;;9.90;8.88;;;;;;;;;;5095163;28;20028;-71
2021/06/25 11:39:06;;;;;;;7.75;7.00;;;;;;;;;;5094705;28;20052;-70
2021/06/25 11:41:34;;;;;;;8.02;7.22;;;;;;;;;;5080599;28;20024;-72
2021/06/25 11:44:01;;;;;;;8.20;7.35;;;;;;;;;;5094835;28;20489;-72
2021/06/25 11:46:27;;;;;;;11.82;8.07;;;;;;;;;;5094889;28;20024;-73
2021/06/25 11:48:59;;;;;;;9.60;8.70;;;;;;;;;;5094125;28;20024;-70
2021/06/25 11:51:27;;;;;;;9.00;8.10;;;;;;;;;;5094467;28;20055;-73
2021/06/25 11:53:53;;;;;;;12.30;7.53;;;;;;;;;;5094785;28;20032;-72
2021/06/25 11:56:20;;;;;;;20.63;8.73;;;;;;;;;;5094625;28;20466;-74
2021/06/25 11:58:55;;;;;;;11.45;8.23;;;;;;;;;;5109074;28;20485;-74
2021/06/25 12:01:21;;;;;;;7.72;6.93;;;;;;;;;;5096601;28;20119;-76
2021/06/25 12:03:49;;;;;;;11.60;7.70;;;;;;;;;;5094769;28;20497;-78
2021/06/25 12:06:16;;;;;;;9.75;8.82;;;;;;;;;;5095273;28;20377;-75
2021/06/25 12:09:02;;;;;;;15.77;7.22;;;;;;;;;;5099383;28;20423;-74
2021/06/25 12:11:29;;;;;;;11.40;7.07;;;;;;;;;;5079058;28;20066;-76
2021/06/25 12:14:01;;;;;;;9.27;7.13;;;;;;;;;;5095074;28;20473;-75
2021/06/25 12:16:27;;;;;;;7.45;6.75;;;;;;;;;;5095460;28;20051;-78
2021/06/25 12:18:53;;;;;;;7.70;6.10;;;;;;;;;;5095030;28;20078;-73
2021/06/25 12:21:21;;;;;;;9.88;7.13;;;;;;;;;;5093295;28;20114;-76
2021/06/25 12:23:56;;;;;;;5.63;5.13;;;;;;;;;;5094448;28;20028;-77
2021/06/25 12:26:22;;;;;;;8.45;7.65;;;;;;;;;;5094553;28;20026;-75
2021/06/25 12:28:49;;;;;;;7.25;6.65;;;;;;;;;;5093961;28;20450;-77
2021/06/25 12:31:19;;;;;;;8.45;7.43;;;;;;;;;;5093156;28;20028;-75
2021/06/25 12:33:46;;;;;;;8.23;7.53;;;;;;;;;;5094905;28;20515;-77
2021/06/25 12:36:13;;;;;;;7.00;6.40;;;;;;;;;;5095060;28;20097;-77
2021/06/25 12:38:39;;;;;;;13.52;7.47;;;;;;;;;;5094808;28;20078;-78
2021/06/25 12:41:07;;;;;;;8.95;8.15;;;;;;;;;;5093376;28;20024;-77
2021/06/25 12:43:33;;;;;;;8.77;7.70;;;;;;;;;;5093906;28;20042;-79
2021/06/25 12:46:02;;;;;;;16.20;7.82;;;;;;;;;;5094694;28;20024;-78
2021/06/25 12:48:30;;;;;;;9.45;7.78;;;;;;;;;;5094095;28;20024;-79
2021/06/25 12:50:57;;;;;;;10.68;8.40;;;;;;;;;;5093477;28;20067;-75
2021/06/25 12:53:27;;;;;;;7.70;7.00;;;;;;;;;;5094964;28;20107;-81
2021/06/25 12:55:53;;;;;;;8.90;8.10;;;;;;;;;;5095442;28;20028;-76
2021/06/25 12:58:19;;;;;;;13.05;10.65;;;;;;;;;;5094873;28;20105;-76
2021/06/25 13:00:46;;;;;;;9.68;7.30;;;;;;;;;;5092741;28;20469;-74
2021/06/25 13:03:12;;;;;;;11.90;9.63;;;;;;;;;;5094990;28;20099;-76
2021/06/25 13:05:38;;;;;;;8.98;8.07;;;;;;;;;;5095078;28;20385;-77
2021/06/25 13:08:23;;;;;;;9.27;8.45;;;;;;;;;;5095246;28;20028;-77
2021/06/25 13:10:50;;;;;;;10.07;7.63;;;;;;;;;;5093057;28;20024;-78
2021/06/25 13:13:18;;;;;;;11.35;10.20;;;;;;;;;;5093783;28;20067;-79
2021/06/25 13:15:46;;;;;;;10.60;9.57;;;;;;;;;;5092896;28;20024;-78
2021/06/25 13:18:12;;;;;;;28.17;12.32;;;;;;;;;;5093554;28;20024;-77
2021/06/25 13:20:58;;;;;;;14.45;12.18;;;;;;;;;;5091661;28;20543;-81
2021/06/25 13:23:24;;;;;;;16.17;12.27;;;;;;;;;;5078611;28;20036;-81
2021/06/25 13:25:55;;;;;;;13.90;12.60;;;;;;;;;;5093319;28;20027;-78
2021/06/25 13:28:21;;;;;;;14.93;13.48;;;;;;;;;;5094814;28;20027;-78
2021/06/25 13:30:47;;;;;;;16.83;15.07;;;;;;;;;;5092616;28;20416;-75
2021/06/25 13:33:14;;;;;;;16.38;14.70;;;;;;;;;;5095010;28;20146;-75
2021/06/25 13:35:41;;;;;;;17.58;15.18;;;;;;;;;;5094336;28;20039;-77
2021/06/25 13:38:27;;;;;;;18.60;14.90;;;;;;;;;;5095997;28;20488;-77
2021/06/25 13:40:58;;;;;;;22.15;18.15;;;;;;;;;;5080398;28;20020;-73
2021/06/25 13:43:33;;;;;;;18.50;16.13;;;;;;;;;;5099328;28;20110;-73
2021/06/25 13:46:15;;;;;;;19.38;15.80;;;;;;;;;;5099037;28;20523;-76
2021/06/25 13:48:42;;;;;;;22.77;20.35;;;;;;;;;;5096843;28;20020;-72
2021/06/25 13:51:09;;;;;;;22.38;20.08;;;;;;;;;;5100193;28;20040;-72
2021/06/25 13:53:38;;;;;;;40.35;24.98;;;;;;;;;;5097291;28;20492;-74
2021/06/25 13:56:05;;;;;;;28.13;25.30;;;;;;;;;;5094734;28;20028;-73
2021/06/25 13:58:32;;;;;;;28.48;25.38;;;;;;;;;;5097087;28;20020;-71
2021/06/25 14:00:58;;;;;;;27.05;24.15;;;;;;;;;;5096687;28;20153;-71
2021/06/25 14:03:26;;;;;;;28.00;25.20;;;;;;;;;;5096789;28;20482;-71
2021/06/25 14:06:07;;;;;;;28.52;25.42;;;;;;;;;;5097373;28;20111;-70
2021/06/25 14:08:37;;;;;;;30.13;24.05;;;;;;;;;;5096870;28;20023;-69
2021/06/25 14:11:03;;;;;;;39.13;23.83;;;;;;;;;;5097540;28;20102;-71
2021/06/25 14:13:36;;;;;;;29.35;26.17;;;;;;;;;;5096720;28;20066;-70
2021/06/25 14:16:13;;;;;;;28.60;25.58;;;;;;;;;;5096557;28;20024;-72
2021/06/25 14:18:39;;;;;;;32.90;27.63;;;;;;;;;;5096568;28;20024;-71
2021/06/25 14:21:05;;;;;;;31.85;28.45;;;;;;;;;;5096301;28;20028;-73
2021/06/25 14:23:31;;;;;;;27.48;24.63;;;;;;;;;;5096509;28;20028;-73
2021/06/25 14:25:57;;;;;;;33.42;28.27;;;;;;;;;;5094587;28;20051;-73
2021/06/25 14:28:24;;;;;;;31.63;28.00;;;;;;;;;;5097111;28;20645;-72
2021/06/25 14:30:50;;;;;;;25.25;22.73;;;;;;;;;;5096737;28;20052;-72
2021/06/25 14:33:16;;;;;;;26.23;23.15;;;;;;;;;;5095650;28;20473;-74
2021/06/25 14:35:43;;;;;;;30.17;26.90;;;;;;;;;;5096510;28;20024;-73
2021/06/25 14:38:09;;;;;;;24.35;21.83;;;;;;;;;;5095905;28;20016;-77
2021/06/25 14:40:35;;;;;;;27.55;24.67;;;;;;;;;;5096443;28;20063;-75
2021/06/25 14:43:01;;;;;;;26.98;24.25;;;;;;;;;;5096634;28;20024;-76
2021/06/25 14:45:27;;;;;;;26.20;20.17;;;;;;;;;;5097617;28;20496;-80
2021/06/25 14:47:53;;;;;;;29.70;25.15;;;;;;;;;;5116911;28;20024;-78
2021/06/25 14:50:19;;;;;;;26.67;24.33;;;;;;;;;;5116574;28;20066;-84